createdAt,value
2022-10-19T00:00:15.955Z,63
2022-10-19T00:01:18.095Z,62.9
2022-10-19T00:02:20.233Z,63.1
2022-10-19T00:03:22.451Z,63.2
2022-10-19T00:04:24.062Z,63.2
2022-10-19T00:05:26.035Z,63.2
2022-10-19T00:06:28.054Z,63.1
2022-10-19T00:07:30.044Z,63.1
2022-10-19T00:08:32.037Z,63.2
2022-10-19T00:09:34.074Z,63.2
2022-10-19T00:10:36.079Z,63.4
2022-10-19T00:11:37.924Z,63.5
2022-10-19T00:12:40.188Z,63.5
2022-10-19T00:13:42.174Z,63.4
2022-10-19T00:14:44.108Z,63.4
2022-10-19T00:15:46.374Z,63.4
2022-10-19T00:16:48.034Z,63.4
2022-10-19T00:17:50.075Z,63.4
2022-10-19T00:18:52.094Z,63.4
2022-10-19T00:19:54.058Z,63.3
2022-10-19T00:20:56.135Z,63.2
2022-10-19T00:21:58.075Z,63.1
2022-10-19T00:23:00.097Z,62.9
2022-10-19T00:24:02.199Z,62.6
2022-10-19T00:25:04.156Z,62.5
2022-10-19T00:26:06.075Z,62.4
2022-10-19T00:27:08.215Z,62.4
2022-10-19T00:28:10.156Z,62.4
2022-10-19T00:29:12.197Z,62.3
2022-10-19T00:30:14.137Z,62
2022-10-19T00:31:16.075Z,61.8
2022-10-19T00:32:18.178Z,61.8
2022-10-19T00:33:20.176Z,61.9
2022-10-19T00:34:22.076Z,62.2
2022-10-19T00:35:24.156Z,62.3
2022-10-19T00:36:26.174Z,62.4
2022-10-19T00:37:28.154Z,62.5
2022-10-19T00:38:30.117Z,62.6
2022-10-19T00:39:32.099Z,62.7
2022-10-19T00:40:34.058Z,62.8
2022-10-19T00:41:36.159Z,62.7
2022-10-19T00:42:38.109Z,62.6
2022-10-19T00:43:40.052Z,62.4
2022-10-19T00:44:42.114Z,61.9
2022-10-19T00:45:44.075Z,62.2
2022-10-19T00:46:46.354Z,62.2
2022-10-19T00:47:48.114Z,62.3
2022-10-19T00:48:50.115Z,62.6
2022-10-19T00:49:52.056Z,62.7
2022-10-19T00:50:53.910Z,62.7
2022-10-19T00:51:55.084Z,62.7
2022-10-19T00:52:57.114Z,62.8
2022-10-19T00:53:59.076Z,63.1
2022-10-19T00:55:01.088Z,63.2
2022-10-19T00:56:03.095Z,63.4
2022-10-19T00:57:05.100Z,63.4
2022-10-19T00:58:07.098Z,63.3
2022-10-19T00:59:09.195Z,63.1
2022-10-19T01:00:11.139Z,62.8
2022-10-19T01:01:13.279Z,62.8
2022-10-19T01:02:15.143Z,62.8
2022-10-19T01:03:17.194Z,62.7
2022-10-19T01:04:19.094Z,62.7
2022-10-19T01:05:21.177Z,62.8
2022-10-19T01:06:23.136Z,63
2022-10-19T01:07:25.079Z,63.1
2022-10-19T01:08:27.135Z,63.3
2022-10-19T01:09:29.255Z,63.5
2022-10-19T01:10:31.143Z,63.5
2022-10-19T01:11:33.114Z,63.3
2022-10-19T01:12:35.079Z,63.1
2022-10-19T01:13:37.135Z,63.2
2022-10-19T01:14:39.134Z,63.1
2022-10-19T01:15:41.152Z,62.9
2022-10-19T01:16:43.141Z,62.6
2022-10-19T01:17:45.028Z,63.1
2022-10-19T01:18:47.175Z,63.3
2022-10-19T01:19:49.314Z,63.2
2022-10-19T01:20:51.055Z,63.2
2022-10-19T01:21:53.091Z,63.3
2022-10-19T01:22:55.041Z,63.5
2022-10-19T01:23:57.086Z,63.6
2022-10-19T01:24:59.137Z,63.5
2022-10-19T01:26:01.087Z,63.5
2022-10-19T01:27:03.196Z,63.6
2022-10-19T01:28:05.139Z,64
2022-10-19T01:29:07.216Z,64.3
2022-10-19T01:30:09.174Z,64.4
2022-10-19T01:31:10.974Z,64.5
2022-10-19T01:32:12.086Z,64.3
2022-10-19T01:33:14.094Z,64.1
2022-10-19T01:34:16.095Z,63.9
2022-10-19T01:35:18.254Z,63.9
2022-10-19T01:36:20.155Z,63.9
2022-10-19T01:37:22.119Z,63.8
2022-10-19T01:38:24.215Z,63.7
2022-10-19T01:39:26.075Z,63.9
2022-10-19T01:40:28.147Z,63.9
2022-10-19T01:41:30.059Z,64
2022-10-19T01:42:32.116Z,64.2
2022-10-19T01:43:34.179Z,64.2
2022-10-19T01:44:36.136Z,63.9
2022-10-19T01:45:38.134Z,63.8
2022-10-19T01:46:40.210Z,63.8
2022-10-19T01:47:41.956Z,63.8
2022-10-19T01:48:42.914Z,63.9
2022-10-19T01:49:43.914Z,63.9
2022-10-19T01:50:44.927Z,64
2022-10-19T01:51:46.469Z,64.2
2022-10-19T01:52:48.096Z,64.4
2022-10-19T01:53:50.095Z,64.8
2022-10-19T01:54:52.078Z,65
2022-10-19T01:55:54.097Z,65.2
2022-10-19T01:56:56.117Z,65.3
2022-10-19T01:57:58.083Z,65.4
2022-10-19T01:59:00.160Z,65.2
2022-10-19T02:00:02.213Z,65.1
2022-10-19T02:03:53.131Z,64.4
2022-10-19T02:04:55.121Z,64.5
2022-10-19T02:05:56.980Z,64.7
2022-10-19T02:06:59.273Z,64.7
2022-10-19T02:08:01.181Z,64.8
2022-10-19T02:09:03.053Z,64.8
2022-10-19T02:10:05.211Z,65.1
2022-10-19T02:11:07.151Z,65.2
2022-10-19T02:12:09.262Z,65.4
2022-10-19T02:13:11.183Z,65.5
2022-10-19T02:14:13.202Z,65.7
2022-10-19T02:15:15.017Z,65.7
2022-10-19T02:16:17.033Z,65.6
2022-10-19T02:17:19.176Z,65.6
2022-10-19T02:18:21.059Z,65.4
2022-10-19T02:20:24.894Z,65.2
2022-10-19T02:21:26.015Z,65.2
2022-10-19T02:22:28.161Z,65.2
2022-10-19T02:23:30.076Z,65.1
2022-10-19T02:24:32.120Z,65.2
2022-10-19T02:25:34.080Z,65.2
2022-10-19T02:26:36.047Z,65.3
2022-10-19T02:27:38.157Z,65.4
2022-10-19T02:28:39.954Z,65.4
2022-10-19T02:29:41.057Z,65.2
2022-10-19T02:30:43.193Z,65.7
2022-10-19T02:31:45.097Z,65.7
2022-10-19T02:32:47.154Z,65.6
2022-10-19T02:33:49.201Z,65.7
2022-10-19T02:34:51.213Z,65.7
2022-10-19T02:35:53.159Z,65.5
2022-10-19T02:36:55.114Z,65.8
2022-10-19T02:37:57.254Z,65.8
2022-10-19T02:38:59.201Z,65.5
2022-10-19T02:40:01.236Z,65.3
2022-10-19T02:41:03.218Z,65.2
2022-10-19T02:42:05.169Z,65.1
2022-10-19T02:43:07.035Z,65.1
2022-10-19T02:44:09.134Z,64.9
2022-10-19T02:45:11.297Z,64.9
2022-10-19T02:46:13.153Z,64.8
2022-10-19T02:47:15.234Z,64.7
2022-10-19T02:48:17.301Z,65
2022-10-19T02:49:19.296Z,64.9
2022-10-19T02:50:21.279Z,64.8
2022-10-19T02:51:23.092Z,64.6
2022-10-19T02:52:25.376Z,64.7
2022-10-19T02:53:27.333Z,65
2022-10-19T02:54:29.143Z,65
2022-10-19T02:55:31.305Z,64.8
2022-10-19T02:56:33.367Z,64.8
2022-10-19T02:57:35.571Z,64.8
2022-10-19T02:58:37.396Z,64.9
2022-10-19T02:59:39.255Z,64.9
2022-10-19T03:00:41.314Z,64.9
2022-10-19T03:01:43.140Z,64.6
2022-10-19T03:02:45.136Z,64.4
2022-10-19T03:03:47.393Z,63.5
2022-10-19T03:04:49.096Z,63.4
2022-10-19T03:05:51.296Z,63.1
2022-10-19T03:06:53.182Z,63.1
2022-10-19T03:07:55.254Z,63.1
2022-10-19T03:08:57.292Z,63
2022-10-19T03:09:59.200Z,62.9
2022-10-19T03:11:01.133Z,62.8
2022-10-19T03:12:03.143Z,62.8
2022-10-19T03:13:05.158Z,62.9
2022-10-19T03:14:06.960Z,63.1
2022-10-19T03:15:08.033Z,63
2022-10-19T03:16:08.949Z,62.8
2022-10-19T03:17:10.014Z,62.8
2022-10-19T03:18:11.023Z,62.8
2022-10-19T03:19:12.035Z,62.8
2022-10-19T03:20:12.975Z,62.6
2022-10-19T03:21:13.975Z,62.6
2022-10-19T03:22:14.871Z,62.6
2022-10-19T03:23:16.006Z,62.7
2022-10-19T03:24:16.960Z,62.6
2022-10-19T03:25:18.185Z,62.6
2022-10-19T03:26:20.079Z,62.8
2022-10-19T03:27:22.117Z,62.8
2022-10-19T03:28:24.153Z,62.7
2022-10-19T03:29:26.114Z,62.7
2022-10-19T03:30:28.197Z,62.9
2022-10-19T03:31:30.182Z,62.8
2022-10-19T03:32:32.159Z,62.9
2022-10-19T03:33:34.253Z,62.8
2022-10-19T03:34:35.935Z,62.8
2022-10-19T03:35:36.935Z,62.9
2022-10-19T03:36:37.962Z,62.9
2022-10-19T03:37:38.961Z,62.7
2022-10-19T03:38:40.030Z,62.6
2022-10-19T03:39:40.980Z,62.5
2022-10-19T03:40:42.075Z,62.4
2022-10-19T03:41:44.116Z,62.4
2022-10-19T03:42:46.574Z,62.4
2022-10-19T03:43:48.211Z,62.4
2022-10-19T03:44:50.193Z,62.2
2022-10-19T03:45:52.062Z,62.4
2022-10-19T03:46:54.124Z,62.1
2022-10-19T03:47:56.093Z,62.4
2022-10-19T03:48:58.071Z,62.6
2022-10-19T03:50:00.087Z,62.7
2022-10-19T03:51:02.227Z,62.7
2022-10-19T03:52:04.020Z,62.7
2022-10-19T03:53:05.036Z,62.5
2022-10-19T03:54:05.941Z,62.6
2022-10-19T03:55:07.013Z,62.8
2022-10-19T03:56:08.000Z,62.9
2022-10-19T03:57:08.974Z,63
2022-10-19T03:58:09.982Z,63.2
2022-10-19T03:59:10.993Z,63
2022-10-19T04:00:11.981Z,63
2022-10-19T04:01:13.021Z,63
2022-10-19T04:02:14.117Z,63.1
2022-10-19T04:03:16.173Z,63.2
2022-10-19T04:04:18.193Z,63.2
2022-10-19T04:05:20.074Z,63.1
2022-10-19T04:06:22.248Z,62.9
2022-10-19T04:07:24.114Z,62.7
2022-10-19T04:08:26.101Z,62.9
2022-10-19T04:09:28.140Z,62.9
2022-10-19T04:10:30.194Z,63
2022-10-19T04:11:32.234Z,62.9
2022-10-19T04:12:34.079Z,62.9
2022-10-19T04:13:36.235Z,62.9
2022-10-19T04:14:45.754Z,63.1
2022-10-19T04:15:39.012Z,63.2
2022-10-19T04:16:40.030Z,63.4
2022-10-19T04:17:41.122Z,63.5
2022-10-19T04:18:43.015Z,63.6
2022-10-19T04:19:44.162Z,63.6
2022-10-19T04:20:46.701Z,63.5
2022-10-19T04:21:48.094Z,63.6
2022-10-19T04:22:50.173Z,63.7
2022-10-19T04:23:52.134Z,64
2022-10-19T04:24:54.133Z,64.3
2022-10-19T04:25:56.194Z,64.5
2022-10-19T04:26:58.225Z,64.6
2022-10-19T04:28:00.133Z,64.7
2022-10-19T04:29:02.369Z,64.8
2022-10-19T04:30:04.285Z,64.9
2022-10-19T04:31:06.101Z,64.9
2022-10-19T04:32:08.236Z,64.8
2022-10-19T04:33:10.158Z,64.7
2022-10-19T04:34:12.157Z,64.7
2022-10-19T04:35:14.142Z,64.7
2022-10-19T04:36:16.161Z,64.6
2022-10-19T04:37:18.255Z,64.5
2022-10-19T04:38:20.181Z,64.5
2022-10-19T04:39:22.153Z,64.5
2022-10-19T04:40:24.201Z,64.5
2022-10-19T04:41:26.224Z,64.5
2022-10-19T04:42:28.174Z,64.6
2022-10-19T04:43:30.268Z,64.1
2022-10-19T04:44:32.194Z,64.4
2022-10-19T04:45:34.214Z,64.5
2022-10-19T04:46:35.953Z,64.5
2022-10-19T04:47:37.198Z,64.3
2022-10-19T04:48:39.189Z,64.4
2022-10-19T04:49:41.201Z,64.6
2022-10-19T04:50:43.218Z,64.8
2022-10-19T04:51:45.199Z,65.3
2022-10-19T04:52:47.101Z,65.3
2022-10-19T04:53:49.071Z,65.4
2022-10-19T04:54:51.183Z,65.4
2022-10-19T04:55:53.156Z,65.5
2022-10-19T04:56:55.134Z,65.4
2022-10-19T04:57:57.234Z,65.2
2022-10-19T04:58:59.174Z,64.9
2022-10-19T05:00:01.302Z,64.9
2022-10-19T05:01:03.263Z,64.8
2022-10-19T05:02:05.183Z,64.9
2022-10-19T05:03:07.115Z,64.8
2022-10-19T05:04:09.179Z,64.7
2022-10-19T05:05:11.273Z,64.6
2022-10-19T05:06:13.273Z,64.7
2022-10-19T05:07:15.314Z,64.7
2022-10-19T05:08:17.118Z,64.7
2022-10-19T05:09:19.134Z,64.6
2022-10-19T05:10:21.295Z,64.8
2022-10-19T05:11:23.121Z,64.9
2022-10-19T05:12:25.173Z,64.8
2022-10-19T05:13:27.322Z,64.6
2022-10-19T05:14:29.287Z,64.7
2022-10-19T05:15:31.194Z,64.6
2022-10-19T05:16:33.169Z,64.3
2022-10-19T05:17:35.533Z,64.3
2022-10-19T05:18:37.255Z,64.3
2022-10-19T05:19:38.948Z,64.4
2022-10-19T05:20:39.963Z,64.6
2022-10-19T05:21:41.067Z,64.8
2022-10-19T05:22:41.994Z,65
2022-10-19T05:23:43.120Z,65.1
2022-10-19T05:24:45.255Z,65.1
2022-10-19T05:25:47.174Z,65.1
2022-10-19T05:26:49.240Z,65
2022-10-19T05:27:51.193Z,65
2022-10-19T05:28:53.308Z,65
2022-10-19T05:29:55.193Z,65
2022-10-19T05:30:57.234Z,65
2022-10-19T05:31:59.234Z,64.8
2022-10-19T05:33:01.275Z,64.6
2022-10-19T05:34:03.580Z,64.3
2022-10-19T05:35:05.183Z,63.8
2022-10-19T05:36:07.155Z,63.8
2022-10-19T05:37:09.193Z,64
2022-10-19T05:38:11.143Z,64
2022-10-19T05:39:13.195Z,64.2
2022-10-19T05:40:15.240Z,64.1
2022-10-19T05:41:17.180Z,64
2022-10-19T05:42:19.214Z,64.2
2022-10-19T05:43:21.140Z,63.9
2022-10-19T05:44:23.193Z,64
2022-10-19T05:45:25.215Z,64
2022-10-19T05:46:27.210Z,63.8
2022-10-19T05:47:30.297Z,63.7
2022-10-19T05:48:31.214Z,63.4
2022-10-19T05:49:33.178Z,63.2
2022-10-19T05:50:35.224Z,63.1
2022-10-19T05:51:37.234Z,63.1
2022-10-19T05:52:39.213Z,63
2022-10-19T05:53:41.249Z,63
2022-10-19T05:54:43.188Z,62.4
2022-10-19T05:55:45.046Z,62.6
2022-10-19T05:56:46.655Z,62.7
2022-10-19T05:57:48.274Z,62.6
2022-10-19T05:58:50.161Z,62.6
2022-10-19T05:59:52.296Z,62.5
2022-10-19T06:00:54.155Z,62.5
2022-10-19T06:01:56.308Z,62.3
2022-10-19T06:02:59.036Z,62.2
2022-10-19T06:04:00.101Z,62
2022-10-19T06:05:01.102Z,62.3
2022-10-19T06:06:02.150Z,62.4
2022-10-19T06:07:03.054Z,62.3
2022-10-19T06:08:03.986Z,62
2022-10-19T06:09:05.210Z,61.8
2022-10-19T06:10:07.192Z,61.7
2022-10-19T06:11:09.157Z,61.7
2022-10-19T06:12:11.053Z,61.7
2022-10-19T06:13:12.074Z,61.9
2022-10-19T06:14:13.075Z,61.9
2022-10-19T06:15:14.074Z,61.7
2022-10-19T06:16:15.294Z,61.5
2022-10-19T06:17:17.185Z,61.7
2022-10-19T06:18:19.274Z,61.8
2022-10-19T06:19:21.194Z,61.6
2022-10-19T06:20:23.242Z,61.7
2022-10-19T06:21:25.049Z,62
2022-10-19T06:22:26.093Z,62.3
2022-10-19T06:23:27.161Z,62.2
2022-10-19T06:24:29.262Z,62.6
2022-10-19T06:25:31.195Z,62.9
2022-10-19T06:26:33.213Z,62.8
2022-10-19T06:27:35.694Z,62.6
2022-10-19T06:28:37.134Z,62.7
2022-10-19T06:29:39.155Z,62.7
2022-10-19T06:30:41.345Z,62.1
2022-10-19T06:31:43.260Z,62.4
2022-10-19T06:32:45.325Z,62.4
2022-10-19T06:33:48.596Z,62.6
2022-10-19T06:34:51.871Z,62.1
2022-10-19T06:35:51.081Z,62.1
2022-10-19T06:36:52.220Z,61.9
2022-10-19T06:37:54.174Z,61.9
2022-10-19T06:38:56.174Z,61.8
2022-10-19T06:39:58.340Z,61.8
2022-10-19T06:41:00.194Z,61.8
2022-10-19T06:42:02.148Z,61.7
2022-10-19T06:43:03.040Z,61.7
2022-10-19T06:44:04.215Z,61.9
2022-10-19T06:45:06.174Z,62.1
2022-10-19T06:46:08.233Z,62.2
2022-10-19T06:47:10.295Z,61.9
2022-10-19T06:48:12.216Z,62.3
2022-10-19T06:49:14.285Z,62.8
2022-10-19T06:50:16.058Z,62.6
2022-10-19T06:51:17.180Z,63
2022-10-19T06:52:19.257Z,63.1
2022-10-19T06:53:21.254Z,63.2
2022-10-19T06:54:23.173Z,63
2022-10-19T06:55:25.216Z,63
2022-10-19T06:56:27.127Z,63.2
2022-10-19T06:57:29.234Z,62.9
2022-10-19T06:58:31.201Z,62.9
2022-10-19T06:59:33.362Z,62.7
2022-10-19T07:00:35.306Z,62.9
2022-10-19T07:01:37.299Z,62.9
2022-10-19T07:02:39.294Z,62.8
2022-10-19T07:03:41.242Z,62.8
2022-10-19T07:04:43.234Z,63.1
2022-10-19T07:05:45.177Z,62.9
2022-10-19T07:06:47.154Z,61.9
2022-10-19T07:07:49.347Z,62.1
2022-10-19T07:08:51.314Z,62.1
2022-10-19T07:09:53.198Z,62
2022-10-19T07:10:55.238Z,62
2022-10-19T07:11:57.255Z,62.1
2022-10-19T07:12:59.320Z,61.9
2022-10-19T07:14:01.301Z,61.6
2022-10-19T07:15:03.303Z,61.5
2022-10-19T07:16:05.150Z,62
2022-10-19T07:17:07.153Z,61.8
2022-10-19T07:18:09.221Z,62.4
2022-10-19T07:19:11.421Z,62.3
2022-10-19T07:20:13.159Z,62.7
2022-10-19T07:21:14.093Z,62.1
2022-10-19T07:22:19.793Z,61.6
2022-10-19T07:23:16.076Z,62.1
2022-10-19T07:24:17.134Z,62.1
2022-10-19T07:25:18.176Z,62.1
2022-10-19T07:26:20.300Z,61.7
2022-10-19T07:27:22.213Z,61.3
2022-10-19T07:28:24.194Z,61.4
2022-10-19T07:29:26.241Z,61.5
2022-10-19T07:30:28.100Z,61
2022-10-19T07:31:29.097Z,60.9
2022-10-19T07:32:30.220Z,60.9
2022-10-19T07:33:32.268Z,60.3
2022-10-19T07:34:34.353Z,60.7
2022-10-19T07:35:36.234Z,60.4
2022-10-19T07:36:38.380Z,60.5
2022-10-19T07:37:40.254Z,60.8
2022-10-19T07:38:42.302Z,60.9
2022-10-19T07:39:44.261Z,60.8
2022-10-19T07:40:47.250Z,60.8
2022-10-19T07:41:48.227Z,60.7
2022-10-19T07:42:50.262Z,60.9
2022-10-19T07:43:52.373Z,61
2022-10-19T07:44:54.363Z,60.6
2022-10-19T07:45:56.201Z,59.7
2022-10-19T07:46:58.294Z,59.2
2022-10-19T07:48:00.215Z,60
2022-10-19T07:49:02.394Z,60.7
2022-10-19T07:50:04.420Z,61.1
2022-10-19T07:51:06.280Z,61.3
2022-10-19T07:52:08.334Z,61.1
2022-10-19T07:53:10.361Z,61
2022-10-19T07:54:12.297Z,60.3
2022-10-19T07:55:14.315Z,60.6
2022-10-19T07:56:16.254Z,60.9
2022-10-19T07:57:18.283Z,61.2
2022-10-19T07:58:20.396Z,61.4
2022-10-19T07:59:22.274Z,60.8
2022-10-19T08:00:24.438Z,60.9
2022-10-19T08:01:26.293Z,60.8
2022-10-19T08:02:30.990Z,60.2
2022-10-19T08:04:14.165Z,59.7
2022-10-19T08:04:55.847Z,59.9
2022-10-19T08:05:34.320Z,60.3
2022-10-19T08:06:36.315Z,60.2
2022-10-19T08:07:38.282Z,60.1
2022-10-19T08:08:40.428Z,60.4
2022-10-19T08:09:57.783Z,59.8
2022-10-19T08:10:44.221Z,60
2022-10-19T08:11:46.374Z,59.5
2022-10-19T08:12:48.213Z,58.6
2022-10-19T08:13:50.335Z,58.6
2022-10-19T08:14:52.221Z,58.9
2022-10-19T08:15:54.583Z,59.3
2022-10-19T08:16:56.326Z,59.6
2022-10-19T08:17:58.318Z,59.3
2022-10-19T08:19:00.361Z,58.8
2022-10-19T08:20:02.310Z,59.2
2022-10-19T08:21:04.440Z,60
2022-10-19T08:22:06.337Z,60.3
2022-10-19T08:23:08.374Z,60.1
2022-10-19T08:24:10.312Z,59.3
2022-10-19T08:25:12.292Z,59.9
2022-10-19T08:26:14.356Z,60.5
2022-10-19T08:27:16.312Z,59.9
2022-10-19T08:28:18.355Z,59.2
2022-10-19T08:29:20.319Z,59.3
2022-10-19T08:30:22.366Z,59.2
2022-10-19T08:31:24.333Z,59.8
2022-10-19T08:32:26.156Z,59.9
2022-10-19T08:33:27.242Z,60.1
2022-10-19T08:34:29.313Z,59
2022-10-19T08:35:31.434Z,58.7
2022-10-19T08:36:33.444Z,59.7
2022-10-19T08:37:47.819Z,59.7
2022-10-19T08:38:37.362Z,60.1
2022-10-19T08:39:39.118Z,59.4
2022-10-19T08:40:40.277Z,59.8
2022-10-19T08:41:42.239Z,59.8
2022-10-19T08:42:43.135Z,59.1
2022-10-19T08:43:44.175Z,59
2022-10-19T08:44:45.115Z,59.3
2022-10-19T08:45:46.365Z,59.6
2022-10-19T08:46:48.216Z,59.3
2022-10-19T08:47:49.314Z,58.2
2022-10-19T08:48:51.335Z,58.1
2022-10-19T08:49:53.273Z,58.1
2022-10-19T08:50:55.281Z,58
2022-10-19T08:51:57.355Z,57
2022-10-19T08:52:59.213Z,56.7
2022-10-19T08:54:00.135Z,57.1
2022-10-19T08:55:01.134Z,56.8
2022-10-19T08:56:04.416Z,56.1
2022-10-19T08:57:04.256Z,55
2022-10-19T08:58:06.355Z,55
2022-10-19T08:59:08.203Z,54.9
2022-10-19T09:00:09.247Z,54.1
2022-10-19T09:01:11.485Z,54.3
2022-10-19T09:02:13.356Z,54.3
2022-10-19T09:03:17.640Z,54.2
2022-10-19T09:04:17.361Z,55.6
2022-10-19T09:05:19.354Z,54.3
2022-10-19T09:06:21.333Z,53.9
2022-10-19T09:07:23.270Z,54.4
2022-10-19T09:08:25.391Z,53.6
2022-10-19T09:09:27.392Z,53.9
2022-10-19T09:10:29.333Z,54
2022-10-19T09:11:31.407Z,54.4
2022-10-19T09:12:33.742Z,54.7
2022-10-19T09:13:41.519Z,55.2
2022-10-19T09:14:37.313Z,54.1
2022-10-19T09:15:39.393Z,53.9
2022-10-19T09:16:41.254Z,53.5
2022-10-19T09:17:43.354Z,54.1
2022-10-19T09:18:45.469Z,54.3
2022-10-19T09:19:47.114Z,53.8
2022-10-19T09:20:48.077Z,53.6
2022-10-19T09:21:49.232Z,53.5
2022-10-19T09:22:51.341Z,53.6
2022-10-19T09:23:53.433Z,53.8
2022-10-19T09:24:55.293Z,53.9
2022-10-19T09:25:57.353Z,53.7
2022-10-19T09:26:59.366Z,53.4
2022-10-19T09:29:03.293Z,53.8
2022-10-19T09:30:05.456Z,53.7
2022-10-19T09:31:07.035Z,53.4
2022-10-19T09:32:08.184Z,53.7
2022-10-19T09:33:12.018Z,53.1
2022-10-19T09:34:10.155Z,53
2022-10-19T09:35:11.173Z,53.2
2022-10-19T09:36:18.252Z,52.9
2022-10-19T09:37:20.143Z,53.4
2022-10-19T09:38:14.251Z,53.6
2022-10-19T09:39:16.102Z,53.2
2022-10-19T09:40:17.313Z,53.1
2022-10-19T09:41:19.282Z,53.6
2022-10-19T09:42:21.325Z,53
2022-10-19T09:43:23.202Z,53.6
2022-10-19T09:44:24.194Z,54.3
2022-10-19T09:45:25.192Z,54.3
2022-10-19T09:46:26.124Z,54.2
2022-10-19T09:47:27.125Z,52.5
2022-10-19T09:48:28.246Z,52.2
2022-10-19T09:49:30.374Z,52.9
2022-10-19T09:50:32.364Z,52.4
2022-10-19T09:51:34.261Z,52.5
2022-10-19T09:52:36.333Z,52.3
2022-10-19T09:53:38.413Z,52.7
2022-10-19T09:54:40.135Z,52.8
2022-10-19T09:55:41.269Z,51.7
2022-10-19T09:56:43.435Z,52.7
2022-10-19T09:57:45.343Z,52.4
2022-10-19T09:58:47.340Z,52.9
2022-10-19T09:59:49.381Z,52.2
2022-10-19T10:00:51.337Z,52.5
2022-10-19T10:01:53.497Z,52.5
2022-10-19T10:02:55.394Z,52.9
2022-10-19T10:03:57.254Z,52.6
2022-10-19T10:04:59.433Z,52.5
2022-10-19T10:06:01.313Z,52
2022-10-19T10:07:03.340Z,52.6
2022-10-19T10:08:05.397Z,52.5
2022-10-19T10:09:07.430Z,51.6
2022-10-19T10:10:09.238Z,52.2
2022-10-19T10:11:10.101Z,52.5
2022-10-19T10:12:11.213Z,52.2
2022-10-19T10:13:12.189Z,52.9
2022-10-19T10:14:13.213Z,53.1
2022-10-19T10:15:14.240Z,53.4
2022-10-19T10:16:15.281Z,52.5
2022-10-19T10:17:17.475Z,52.4
2022-10-19T10:18:19.414Z,52.3
2022-10-19T10:19:24.197Z,51.8
2022-10-19T10:20:23.610Z,51.3
2022-10-19T10:21:25.968Z,52.1
2022-10-19T10:22:27.285Z,52.2
2022-10-19T10:23:29.368Z,53.3
2022-10-19T10:24:31.175Z,52.3
2022-10-19T10:25:32.384Z,52.4
2022-10-19T10:27:36.654Z,52.3
2022-10-19T10:28:38.417Z,52.3
2022-10-19T10:29:40.362Z,51.1
2022-10-19T10:30:42.394Z,50.2
2022-10-19T10:31:44.334Z,50.5
2022-10-19T10:32:47.961Z,50.9
2022-10-19T10:33:48.548Z,51.2
2022-10-19T10:34:52.989Z,51.4
2022-10-19T10:35:52.361Z,51.6
2022-10-19T10:36:54.399Z,51.2
2022-10-19T10:37:56.354Z,49.1
2022-10-19T10:38:58.433Z,48.8
2022-10-19T10:40:02.065Z,48.5
2022-10-19T10:41:02.534Z,46.9
2022-10-19T10:42:04.340Z,46.4
2022-10-19T10:43:06.473Z,46
2022-10-19T10:44:08.438Z,47
2022-10-19T10:45:10.399Z,47.4
2022-10-19T10:46:12.385Z,46.6
2022-10-19T10:47:14.423Z,44.9
2022-10-19T10:48:16.349Z,44
2022-10-19T10:49:18.433Z,43.4
2022-10-19T10:50:20.415Z,42.3
2022-10-19T10:51:22.493Z,42.9
2022-10-19T10:52:24.274Z,42.2
2022-10-19T10:53:26.473Z,44.2
2022-10-19T10:54:28.395Z,44.3
2022-10-19T10:55:30.473Z,44.4
2022-10-19T10:56:32.414Z,44.7
2022-10-19T10:57:34.314Z,44.3
2022-10-19T10:58:36.436Z,44.9
2022-10-19T10:59:40.484Z,45.2
2022-10-19T11:00:40.425Z,45.1
2022-10-19T11:01:42.607Z,45.5
2022-10-19T11:02:44.265Z,47.2
2022-10-19T11:03:45.216Z,47.4
2022-10-19T11:04:47.361Z,46.8
2022-10-19T11:05:47.241Z,47.6
2022-10-19T11:06:48.240Z,47.6
2022-10-19T11:07:49.149Z,46.8
2022-10-19T11:08:50.359Z,45.8
2022-10-19T11:09:52.339Z,45.4
2022-10-19T11:10:54.390Z,45
2022-10-19T11:11:56.462Z,42.7
2022-10-19T11:12:58.357Z,43.2
2022-10-19T11:14:00.334Z,43.1
2022-10-19T11:15:02.427Z,43.3
2022-10-19T11:16:04.434Z,43.9
2022-10-19T11:17:06.388Z,43.5
2022-10-19T11:18:08.414Z,43
2022-10-19T11:19:10.373Z,42.5
2022-10-19T11:20:12.363Z,41.6
2022-10-19T11:21:14.434Z,40.7
2022-10-19T11:22:16.500Z,41
2022-10-19T11:23:18.398Z,41.3
2022-10-19T11:24:20.379Z,42
2022-10-19T11:25:22.353Z,41.3
2022-10-19T11:26:24.534Z,42.2
2022-10-19T11:27:26.285Z,41.5
2022-10-19T11:28:28.415Z,40.9
2022-10-19T11:29:30.361Z,40.9
2022-10-19T11:30:32.417Z,40.6
2022-10-19T11:31:34.383Z,40.9
2022-10-19T11:32:36.952Z,41.5
2022-10-19T11:33:38.383Z,41.9
2022-10-19T11:34:40.356Z,42
2022-10-19T11:35:42.374Z,42.2
2022-10-19T11:36:44.530Z,42.4
2022-10-19T11:37:50.345Z,43.7
2022-10-19T11:38:48.456Z,43.4
2022-10-19T11:39:50.303Z,45
2022-10-19T11:41:13.058Z,44.9
2022-10-19T11:41:54.479Z,45.4
2022-10-19T11:42:56.471Z,45.9
2022-10-19T11:43:58.334Z,46.2
2022-10-19T11:45:00.463Z,46.3
2022-10-19T11:46:02.387Z,47.1
2022-10-19T11:47:04.423Z,47.6
2022-10-19T11:48:06.434Z,47.3
2022-10-19T11:49:08.382Z,46.8
2022-10-19T11:50:10.439Z,47.3
2022-10-19T11:51:21.568Z,47.9
2022-10-19T11:52:14.580Z,48.2
2022-10-19T11:53:16.333Z,47.9
2022-10-19T11:54:18.308Z,48.7
2022-10-19T11:55:20.361Z,48.5
2022-10-19T11:56:25.191Z,48.4
2022-10-19T11:57:24.354Z,48.2
2022-10-19T11:58:28.955Z,48.9
2022-10-19T11:59:28.366Z,48.3
2022-10-19T12:00:45.076Z,48.5
2022-10-19T12:01:32.427Z,48.8
2022-10-19T12:02:34.723Z,49.2
2022-10-19T12:03:36.383Z,49.1
2022-10-19T12:04:38.130Z,48.5
2022-10-19T12:05:39.244Z,48.6
2022-10-19T12:06:40.234Z,48.9
2022-10-19T12:07:41.233Z,48.3
2022-10-19T12:08:42.421Z,48.3
2022-10-19T12:09:44.453Z,48
2022-10-19T12:10:46.447Z,47.4
2022-10-19T12:11:48.561Z,47.8
2022-10-19T12:12:50.495Z,47.8
2022-10-19T12:13:52.361Z,48.1
2022-10-19T12:14:54.384Z,48.4
2022-10-19T12:15:56.503Z,48.5
2022-10-19T12:16:58.463Z,48.1
2022-10-19T12:18:00.474Z,48.7
2022-10-19T12:19:02.434Z,49.3
2022-10-19T12:20:04.545Z,49
2022-10-19T12:21:06.493Z,49.3
2022-10-19T12:22:08.182Z,49.6
2022-10-19T12:23:09.314Z,49.8
2022-10-19T12:24:10.240Z,49.9
2022-10-19T12:25:11.384Z,49.9
2022-10-19T12:26:13.500Z,50.2
2022-10-19T12:27:15.476Z,50
2022-10-19T12:28:17.460Z,49.7
2022-10-19T12:29:19.395Z,50.5
2022-10-19T12:30:21.463Z,50.7
2022-10-19T12:31:23.416Z,50.8
2022-10-19T12:32:25.430Z,49.8
2022-10-19T12:33:27.414Z,50
2022-10-19T12:34:29.381Z,50.6
2022-10-19T12:35:31.462Z,50.7
2022-10-19T12:36:33.393Z,51.6
2022-10-19T12:37:35.793Z,50.7
2022-10-19T12:38:39.726Z,51.3
2022-10-19T12:39:39.774Z,51.2
2022-10-19T12:40:41.332Z,50.9
2022-10-19T12:41:43.443Z,51.5
2022-10-19T12:42:45.343Z,51.3
2022-10-19T12:43:47.574Z,50.8
2022-10-19T12:44:49.341Z,50.8
2022-10-19T12:45:51.411Z,51.3
2022-10-19T12:46:54.624Z,50.7
2022-10-19T12:47:55.485Z,50.2
2022-10-19T12:48:57.474Z,50.1
2022-10-19T12:49:59.450Z,50.5
2022-10-19T12:51:01.722Z,50.3
2022-10-19T12:52:03.376Z,50.5
2022-10-19T12:53:05.481Z,50.3
2022-10-19T12:54:07.413Z,50.3
2022-10-19T12:55:09.532Z,50.1
2022-10-19T12:56:11.427Z,50.6
2022-10-19T12:57:13.494Z,50.4
2022-10-19T12:58:15.394Z,50
2022-10-19T12:59:17.375Z,50.3
2022-10-19T13:00:19.400Z,50.1
2022-10-19T13:01:21.474Z,50
2022-10-19T13:02:23.532Z,50
2022-10-19T13:03:26.371Z,50.4
2022-10-19T13:04:27.353Z,50.4
2022-10-19T13:05:29.381Z,50.5
2022-10-19T13:06:31.378Z,50.5
2022-10-19T13:07:33.693Z,50.4
2022-10-19T13:08:35.503Z,50.9
2022-10-19T13:09:37.436Z,50.7
2022-10-19T13:10:39.435Z,50.1
2022-10-19T13:11:41.545Z,50.5
2022-10-19T13:12:43.494Z,50.1
2022-10-19T13:13:45.410Z,50.2
2022-10-19T13:14:47.429Z,51
2022-10-19T13:15:49.469Z,50.9
2022-10-19T13:16:51.935Z,50.8
2022-10-19T13:17:53.617Z,50.6
2022-10-19T13:18:55.612Z,50.6
2022-10-19T13:19:57.494Z,50.6
2022-10-19T13:21:00.366Z,50.4
2022-10-19T13:22:01.613Z,50.6
2022-10-19T13:23:03.421Z,51.2
2022-10-19T13:24:05.434Z,51.6
2022-10-19T13:25:07.519Z,51.5
2022-10-19T13:26:09.474Z,50.8
2022-10-19T13:27:11.563Z,51.4
2022-10-19T13:28:13.370Z,52.1
2022-10-19T13:29:15.480Z,51.7
2022-10-19T13:30:17.534Z,51.5
2022-10-19T13:31:19.433Z,51.2
2022-10-19T13:32:21.420Z,51.1
2022-10-19T13:33:23.381Z,51.2
2022-10-19T13:34:25.359Z,51.6
2022-10-19T13:35:26.360Z,51
2022-10-19T13:36:28.613Z,51.4
2022-10-19T13:37:34.549Z,51.5
2022-10-19T13:38:32.432Z,51.4
2022-10-19T13:39:34.318Z,51.2
2022-10-19T13:40:35.415Z,51.6
2022-10-19T13:41:37.535Z,51.9
2022-10-19T13:42:39.497Z,52.2
2022-10-19T13:43:41.414Z,51.3
2022-10-19T13:44:43.402Z,51.5
2022-10-19T13:45:45.451Z,51.1
2022-10-19T13:46:47.393Z,51.4
2022-10-19T13:47:49.503Z,51.3
2022-10-19T13:48:51.502Z,51.5
2022-10-19T13:49:53.519Z,51.5
2022-10-19T13:50:55.481Z,52.1
2022-10-19T13:51:57.554Z,52.3
2022-10-19T13:52:59.533Z,52.1
2022-10-19T13:54:01.563Z,52.1